createdAt,value
2022-10-30T00:00:19.948Z,15.80
2022-10-30T00:02:49.639Z,15.80
2022-10-30T00:05:18.504Z,15.80
2022-10-30T00:07:46.397Z,15.80
2022-10-30T00:10:14.960Z,15.80
2022-10-30T00:12:42.794Z,15.80
2022-10-30T00:15:11.844Z,15.70
2022-10-30T00:17:39.744Z,15.70
2022-10-30T00:20:09.851Z,15.70
2022-10-30T00:22:38.238Z,15.60
2022-10-30T00:25:06.979Z,15.80
2022-10-30T00:27:34.805Z,15.60
2022-10-30T00:30:02.704Z,15.60
2022-10-30T00:32:30.499Z,15.50
2022-10-30T00:34:58.326Z,15.50
2022-10-30T00:37:27.525Z,15.50
2022-10-30T00:39:55.325Z,15.50
2022-10-30T00:42:23.126Z,15.50
2022-10-30T00:44:52.765Z,15.50
2022-10-30T00:47:27.865Z,15.50
2022-10-30T00:50:01.936Z,15.50
2022-10-30T00:52:35.066Z,15.50
2022-10-30T00:55:06.903Z,15.40
2022-10-30T00:57:36.395Z,15.40
2022-10-30T01:00:05.658Z,15.40
2022-10-30T01:02:34.491Z,15.40
2022-10-30T01:05:03.787Z,15.40
2022-10-30T01:07:33.075Z,15.40
2022-10-30T01:10:01.582Z,15.40
2022-10-30T01:12:29.405Z,15.30
2022-10-30T01:15:00.280Z,15.30
2022-10-30T01:17:57.026Z,15.30
2022-10-30T01:20:49.676Z,15.30
2022-10-30T01:23:32.318Z,15.20
2022-10-30T01:26:07.280Z,15.20
2022-10-30T01:28:51.356Z,15.20
2022-10-30T01:31:36.394Z,15.20
2022-10-30T01:34:18.140Z,15.20
2022-10-30T01:36:50.615Z,15.10
2022-10-30T01:39:24.075Z,15.20
2022-10-30T01:41:51.903Z,15.10
2022-10-30T01:44:24.204Z,15.20
2022-10-30T01:47:09.574Z,15.20
2022-10-30T01:50:07.606Z,15.20
2022-10-30T01:52:41.427Z,15.10
2022-10-30T01:55:19.184Z,15.10
2022-10-30T01:57:55.523Z,15.10
2022-10-30T02:00:23.963Z,15.10
2022-10-30T02:02:52.935Z,15.10
2022-10-30T02:05:30.699Z,15.10
2022-10-30T02:07:58.813Z,15.10
2022-10-30T02:10:28.888Z,15.20
2022-10-30T02:12:56.877Z,15.20
2022-10-30T02:15:24.865Z,15.10
2022-10-30T02:17:52.921Z,15.10
2022-10-30T02:20:22.081Z,15.10
2022-10-30T02:22:53.103Z,15.00
2022-10-30T02:25:25.756Z,15.00
2022-10-30T02:27:53.631Z,15.00
2022-10-30T02:30:21.466Z,15.00
2022-10-30T02:32:50.020Z,15.00
2022-10-30T02:35:17.972Z,15.00
2022-10-30T02:37:48.830Z,14.90
2022-10-30T02:40:16.784Z,14.90
2022-10-30T02:42:44.630Z,14.90
2022-10-30T02:45:12.652Z,14.80
2022-10-30T02:50:10.071Z,14.80
2022-10-30T02:52:37.858Z,14.70
2022-10-30T02:55:07.510Z,14.70
2022-10-30T02:57:35.359Z,14.70
2022-10-30T03:00:03.153Z,14.60
2022-10-30T03:02:30.992Z,14.60
2022-10-30T03:04:58.783Z,14.60
2022-10-30T03:07:26.626Z,14.60
2022-10-30T03:09:54.922Z,14.50
2022-10-30T03:12:24.374Z,14.50
2022-10-30T03:14:52.178Z,14.50
2022-10-30T03:17:20.019Z,14.50
2022-10-30T03:19:47.836Z,14.40
2022-10-30T03:22:15.664Z,14.40
2022-10-30T03:24:43.462Z,14.40
2022-10-30T03:27:11.313Z,14.50
2022-10-30T03:29:40.465Z,14.40
2022-10-30T03:32:11.378Z,14.40
2022-10-30T03:34:39.228Z,14.50
2022-10-30T03:37:07.343Z,14.50
2022-10-30T03:39:35.246Z,14.50
2022-10-30T03:42:03.069Z,14.50
2022-10-30T03:44:30.891Z,14.50
2022-10-30T03:47:00.126Z,14.50
2022-10-30T03:49:28.001Z,14.50
2022-10-30T03:51:55.833Z,14.50
2022-10-30T03:54:23.683Z,14.50
2022-10-30T03:56:51.484Z,14.50
2022-10-30T03:59:19.308Z,14.50
2022-10-30T04:01:47.289Z,14.50
2022-10-30T04:04:16.656Z,14.50
2022-10-30T04:06:44.473Z,14.50
2022-10-30T04:09:12.441Z,14.40
2022-10-30T04:11:40.230Z,14.50
2022-10-30T04:14:08.157Z,14.40
2022-10-30T04:16:35.964Z,14.30
2022-10-30T04:19:03.793Z,14.30
2022-10-30T04:21:32.925Z,14.30
2022-10-30T04:24:00.729Z,14.30
2022-10-30T04:26:29.170Z,14.30
2022-10-30T04:28:57.019Z,14.30
2022-10-30T04:31:24.884Z,14.30
2022-10-30T04:33:52.696Z,14.30
2022-10-30T04:36:21.819Z,14.20
2022-10-30T04:38:50.967Z,14.20
2022-10-30T04:41:18.760Z,14.20
2022-10-30T04:43:49.156Z,14.10
2022-10-30T04:46:17.543Z,14.10
2022-10-30T04:48:45.806Z,14.10
2022-10-30T04:51:13.949Z,14.10
2022-10-30T04:53:42.290Z,14.00
2022-10-30T04:56:11.782Z,14.00
2022-10-30T04:58:39.601Z,14.00
2022-10-30T05:01:08.264Z,14.00
2022-10-30T05:03:36.180Z,14.00
2022-10-30T05:06:06.800Z,14.00
2022-10-30T05:08:35.130Z,14.00
2022-10-30T05:11:05.560Z,14.00
2022-10-30T05:13:34.714Z,14.00
2022-10-30T05:16:02.549Z,14.10
2022-10-30T05:18:30.369Z,14.10
2022-10-30T05:20:58.161Z,14.10
2022-10-30T05:23:26.044Z,14.10
2022-10-30T05:25:53.862Z,14.10
2022-10-30T05:28:21.674Z,14.00
2022-10-30T05:30:54.224Z,14.00
2022-10-30T05:33:23.391Z,14.00
2022-10-30T05:35:51.435Z,14.00
2022-10-30T05:38:19.265Z,14.00
2022-10-30T05:40:47.900Z,14.00
2022-10-30T05:43:15.779Z,14.00
2022-10-30T05:45:44.284Z,14.00
2022-10-30T05:48:13.544Z,14.00
2022-10-30T05:50:41.371Z,13.90
2022-10-30T05:53:10.138Z,13.90
2022-10-30T05:55:37.975Z,13.90
2022-10-30T05:58:06.981Z,13.90
2022-10-30T06:00:37.082Z,13.80
2022-10-30T06:03:06.733Z,13.80
2022-10-30T06:05:38.123Z,13.70
2022-10-30T06:08:08.991Z,13.70
2022-10-30T06:10:37.689Z,13.80
2022-10-30T06:13:08.085Z,13.80
2022-10-30T06:15:35.907Z,13.80
2022-10-30T06:18:03.774Z,13.80
2022-10-30T06:20:32.087Z,13.80
2022-10-30T06:23:02.595Z,13.80
2022-10-30T06:25:33.158Z,13.80
2022-10-30T06:28:02.346Z,13.80
2022-10-30T06:30:30.762Z,13.80
2022-10-30T06:32:59.931Z,13.80
2022-10-30T06:35:28.473Z,13.90
2022-10-30T06:37:58.539Z,13.80
2022-10-30T06:40:28.080Z,13.90
2022-10-30T06:42:56.173Z,13.90
2022-10-30T06:45:24.927Z,13.90
2022-10-30T06:47:52.815Z,13.90
2022-10-30T06:50:22.359Z,13.90
2022-10-30T06:52:50.300Z,13.90
2022-10-30T06:55:18.820Z,13.90
2022-10-30T06:57:54.020Z,13.90
2022-10-30T07:00:21.979Z,14.00
2022-10-30T07:02:57.430Z,14.00
2022-10-30T07:05:25.540Z,14.10
2022-10-30T07:07:53.372Z,14.10
2022-10-30T07:10:21.166Z,14.10
2022-10-30T07:12:54.706Z,14.20
2022-10-30T07:15:22.614Z,14.20
2022-10-30T07:17:55.162Z,14.20
2022-10-30T07:20:23.493Z,14.20
2022-10-30T07:22:51.429Z,14.30
2022-10-30T07:25:19.560Z,14.30
2022-10-30T07:27:49.067Z,14.30
2022-10-30T07:30:20.886Z,14.40
2022-10-30T07:32:58.248Z,14.40
2022-10-30T07:35:26.515Z,14.40
2022-10-30T07:37:54.645Z,14.40
2022-10-30T07:40:22.934Z,14.50
2022-10-30T07:42:50.796Z,14.50
2022-10-30T07:45:21.645Z,14.60
2022-10-30T07:47:50.243Z,14.60
2022-10-30T07:50:18.456Z,14.60
2022-10-30T07:52:46.279Z,14.60
2022-10-30T07:55:14.494Z,14.60
2022-10-30T07:57:43.622Z,14.70
2022-10-30T08:00:13.701Z,14.70
2022-10-30T08:02:43.142Z,14.80
2022-10-30T08:05:11.409Z,14.70
2022-10-30T08:07:40.044Z,14.70
2022-10-30T08:10:08.665Z,14.80
2022-10-30T08:12:38.251Z,14.80
2022-10-30T08:15:07.016Z,14.80
2022-10-30T08:17:34.935Z,14.80
2022-10-30T08:20:04.253Z,14.90
2022-10-30T08:22:32.027Z,14.90
2022-10-30T08:24:59.818Z,14.90
2022-10-30T08:27:27.628Z,14.90
2022-10-30T08:29:55.424Z,14.90
2022-10-30T08:32:23.236Z,14.90
2022-10-30T08:34:51.039Z,14.90
2022-10-30T08:37:20.163Z,15.00
2022-10-30T08:39:48.002Z,15.00
2022-10-30T08:42:15.800Z,15.10
2022-10-30T08:44:43.623Z,15.10
2022-10-30T08:47:11.434Z,15.10
2022-10-30T08:49:39.222Z,15.20
2022-10-30T08:52:09.628Z,15.20
2022-10-30T08:54:38.775Z,15.40
2022-10-30T08:57:06.583Z,15.30
2022-10-30T08:59:34.394Z,15.30
2022-10-30T09:02:02.356Z,15.30
2022-10-30T09:04:30.305Z,15.30
2022-10-30T09:06:58.092Z,15.40
2022-10-30T09:09:25.924Z,15.40
2022-10-30T09:11:55.077Z,15.50
2022-10-30T09:14:22.887Z,15.50
2022-10-30T09:16:50.696Z,15.50
2022-10-30T09:19:19.016Z,15.60
2022-10-30T09:21:46.948Z,15.60
2022-10-30T09:24:14.742Z,15.60
2022-10-30T09:26:42.523Z,15.60
2022-10-30T09:29:11.744Z,15.60
2022-10-30T09:31:39.720Z,15.70
2022-10-30T09:34:07.668Z,15.60
2022-10-30T09:36:35.532Z,15.60
2022-10-30T09:39:03.351Z,15.70
2022-10-30T09:41:51.075Z,15.70
2022-10-30T09:44:35.342Z,15.70
2022-10-30T09:47:20.844Z,15.70
2022-10-30T09:50:18.452Z,15.70
2022-10-30T09:52:59.095Z,15.70
2022-10-30T09:55:35.534Z,15.80
2022-10-30T09:58:15.910Z,15.80
2022-10-30T10:00:51.633Z,15.80
2022-10-30T10:03:28.413Z,15.80
2022-10-30T10:06:00.172Z,15.80
2022-10-30T10:08:33.567Z,15.80
2022-10-30T10:11:05.110Z,15.90
2022-10-30T10:13:38.328Z,15.90
2022-10-30T10:16:15.416Z,15.90
2022-10-30T10:18:47.129Z,15.90
2022-10-30T10:21:22.271Z,15.90
2022-10-30T10:23:51.481Z,16.00
2022-10-30T10:26:31.265Z,16.00
2022-10-30T10:29:16.154Z,16.00
2022-10-30T10:31:59.871Z,16.00
2022-10-30T10:34:56.213Z,16.10
2022-10-30T10:37:32.523Z,16.10
2022-10-30T10:40:24.972Z,16.20
2022-10-30T10:43:05.343Z,16.20
2022-10-30T10:45:45.156Z,16.20
2022-10-30T10:48:32.273Z,16.20
2022-10-30T10:51:03.816Z,16.30
2022-10-30T10:53:41.885Z,16.30
2022-10-30T10:56:11.528Z,16.30
2022-10-30T10:58:49.027Z,16.40
2022-10-30T11:01:21.784Z,16.40
2022-10-30T11:03:58.684Z,16.40
2022-10-30T11:06:29.231Z,16.50
2022-10-30T11:09:12.837Z,16.50
2022-10-30T11:11:40.721Z,16.60
2022-10-30T11:14:15.553Z,16.60
2022-10-30T11:16:57.399Z,16.60
2022-10-30T11:19:27.057Z,16.60
2022-10-30T11:21:56.297Z,16.60
2022-10-30T11:24:29.171Z,16.70
2022-10-30T11:26:58.447Z,16.70
2022-10-30T11:29:28.811Z,16.80
2022-10-30T11:32:02.733Z,16.80
2022-10-30T11:34:35.448Z,16.90
2022-10-30T11:37:04.307Z,16.80
2022-10-30T11:39:34.135Z,16.90
2022-10-30T11:42:06.087Z,16.90
2022-10-30T11:44:37.806Z,17.00
2022-10-30T11:47:07.595Z,17.00
2022-10-30T11:49:45.746Z,17.00
2022-10-30T11:52:16.874Z,17.10
2022-10-30T11:54:48.288Z,17.20
2022-10-30T11:57:24.082Z,17.20
2022-10-30T11:59:55.490Z,17.40
2022-10-30T12:02:28.246Z,17.30
2022-10-30T12:05:02.938Z,17.40
2022-10-30T12:07:33.164Z,17.50
2022-10-30T12:10:02.462Z,17.60
2022-10-30T12:12:34.099Z,17.90
2022-10-30T12:15:11.963Z,18.20
2022-10-30T12:17:40.814Z,18.60
2022-10-30T12:20:15.709Z,19.10
2022-10-30T12:22:43.667Z,19.50
2022-10-30T12:25:22.994Z,19.90
2022-10-30T12:27:52.124Z,20.20
2022-10-30T12:30:21.718Z,20.30
2022-10-30T12:32:53.452Z,20.50
2022-10-30T12:35:36.665Z,20.80
2022-10-30T12:38:07.342Z,21.00
2022-10-30T12:40:39.880Z,21.40
2022-10-30T12:43:17.232Z,21.70
2022-10-30T12:45:47.689Z,22.00
2022-10-30T12:48:19.016Z,22.40
2022-10-30T12:50:51.802Z,22.70
2022-10-30T12:53:28.568Z,22.90
2022-10-30T12:56:01.204Z,23.10
2022-10-30T12:58:35.449Z,23.30
2022-10-30T13:01:10.934Z,23.40
2022-10-30T13:03:43.379Z,23.50
2022-10-30T13:06:17.700Z,23.60
2022-10-30T13:08:56.475Z,23.70
2022-10-30T13:11:34.085Z,23.90
2022-10-30T13:14:03.070Z,24.00
2022-10-30T13:16:32.894Z,24.00
2022-10-30T13:19:02.538Z,24.00
2022-10-30T13:21:38.777Z,23.80
2022-10-30T13:24:12.030Z,23.90
2022-10-30T13:26:45.434Z,23.90
2022-10-30T13:29:25.039Z,23.70
2022-10-30T13:32:04.737Z,23.60
2022-10-30T13:34:41.505Z,23.30
2022-10-30T13:37:16.424Z,23.00
2022-10-30T13:39:53.691Z,22.80
2022-10-30T13:42:37.787Z,22.50
2022-10-30T13:45:30.859Z,22.30
2022-10-30T13:48:07.036Z,22.10
2022-10-30T13:50:48.491Z,22.00
2022-10-30T13:53:22.563Z,21.70
2022-10-30T13:55:52.090Z,21.60
2022-10-30T13:58:25.218Z,21.20
2022-10-30T14:01:01.370Z,21.40
2022-10-30T14:03:47.112Z,21.00
2022-10-30T14:06:25.692Z,21.00
2022-10-30T14:09:03.761Z,21.00
2022-10-30T14:11:31.631Z,21.00
2022-10-30T14:14:06.166Z,21.00
2022-10-30T14:16:37.108Z,20.80
2022-10-30T14:19:06.340Z,20.90
2022-10-30T14:21:42.756Z,20.60
2022-10-30T14:24:16.011Z,20.90
2022-10-30T14:26:52.596Z,21.30
2022-10-30T14:29:45.820Z,21.10
2022-10-30T14:32:42.774Z,21.40
2022-10-30T14:35:34.066Z,21.40
2022-10-30T14:38:27.770Z,21.50
2022-10-30T14:41:16.896Z,21.40
2022-10-30T14:43:51.611Z,21.30
2022-10-30T14:46:28.828Z,21.10
2022-10-30T14:49:04.790Z,20.80
2022-10-30T14:51:41.184Z,20.80
2022-10-30T14:54:18.152Z,20.60
2022-10-30T14:56:49.909Z,20.40
2022-10-30T14:59:34.259Z,20.40
2022-10-30T15:02:18.097Z,20.30
2022-10-30T15:04:59.191Z,20.10
2022-10-30T15:07:34.157Z,20.20
2022-10-30T15:10:11.938Z,19.90
2022-10-30T15:13:04.500Z,19.90
2022-10-30T15:15:33.055Z,19.80
2022-10-30T15:18:05.140Z,19.70
2022-10-30T15:20:34.925Z,19.60
2022-10-30T15:23:05.464Z,19.50
2022-10-30T15:25:36.567Z,19.50
2022-10-30T15:28:06.612Z,19.40
2022-10-30T15:30:34.481Z,19.30
2022-10-30T15:33:02.643Z,19.30
2022-10-30T15:35:30.962Z,19.20
2022-10-30T15:38:00.082Z,19.10
2022-10-30T15:40:28.700Z,19.10
2022-10-30T15:42:58.202Z,19.00
2022-10-30T15:45:33.484Z,18.80
2022-10-30T15:48:06.731Z,18.80
2022-10-30T15:50:35.669Z,18.90
2022-10-30T15:53:03.918Z,18.80
2022-10-30T15:55:33.396Z,18.80
2022-10-30T15:58:05.049Z,18.60
2022-10-30T16:00:36.711Z,18.60
2022-10-30T16:03:06.919Z,18.60
2022-10-30T16:05:35.648Z,18.60
2022-10-30T16:08:05.118Z,18.80
2022-10-30T16:10:35.378Z,18.40
2022-10-30T16:13:04.538Z,18.60
2022-10-30T16:15:36.806Z,19.30
2022-10-30T16:18:16.663Z,18.10
2022-10-30T16:20:48.138Z,18.40
2022-10-30T16:23:17.581Z,18.30
2022-10-30T16:25:47.454Z,18.50
2022-10-30T16:28:26.914Z,17.90
2022-10-30T16:30:57.417Z,18.10
2022-10-30T16:33:27.364Z,17.90
2022-10-30T16:35:56.118Z,18.30
2022-10-30T16:38:24.774Z,18.00
2022-10-30T16:40:53.209Z,18.10
2022-10-30T16:43:29.625Z,18.00
2022-10-30T16:46:28.960Z,17.80
2022-10-30T16:49:02.306Z,17.80
2022-10-30T16:51:31.410Z,17.70
2022-10-30T16:53:59.354Z,17.60
2022-10-30T16:56:29.132Z,17.60
2022-10-30T16:59:06.219Z,18.10
2022-10-30T17:01:36.820Z,18.00
2022-10-30T17:04:06.102Z,17.60
2022-10-30T17:06:40.838Z,17.50
2022-10-30T17:09:10.647Z,18.00
2022-10-30T17:11:41.841Z,17.50
2022-10-30T17:14:20.124Z,17.50
2022-10-30T17:16:56.988Z,17.40
2022-10-30T17:19:48.162Z,17.60
2022-10-30T17:22:20.339Z,17.20
2022-10-30T17:24:48.487Z,17.30
2022-10-30T17:27:46.816Z,17.00
2022-10-30T17:30:35.669Z,17.20
2022-10-30T17:33:31.455Z,17.30
2022-10-30T17:35:59.382Z,17.20
2022-10-30T17:38:27.250Z,16.90
2022-10-30T17:40:55.435Z,17.40
2022-10-30T17:43:25.676Z,17.50
2022-10-30T17:45:53.496Z,16.90
2022-10-30T17:48:25.295Z,17.10
2022-10-30T17:50:53.123Z,16.90
2022-10-30T17:53:22.865Z,16.60
2022-10-30T17:55:56.848Z,17.00
2022-10-30T17:58:24.859Z,16.90
2022-10-30T18:00:52.754Z,16.60
2022-10-30T18:03:21.953Z,16.90
2022-10-30T18:05:50.470Z,16.70
2022-10-30T18:08:18.303Z,16.60
2022-10-30T18:10:46.112Z,16.80
2022-10-30T18:13:15.181Z,16.90
2022-10-30T18:15:45.273Z,16.80
2022-10-30T18:18:13.135Z,17.20
2022-10-30T18:20:42.287Z,16.40
2022-10-30T18:23:46.329Z,16.50
2022-10-30T18:26:07.641Z,16.70
2022-10-30T18:28:35.471Z,16.70
2022-10-30T18:31:03.284Z,16.70
2022-10-30T18:33:31.084Z,16.70
2022-10-30T18:36:00.405Z,16.20
2022-10-30T18:38:28.211Z,16.60
2022-10-30T18:40:56.150Z,16.30
2022-10-30T18:43:23.991Z,16.60
2022-10-30T18:45:51.782Z,16.00
2022-10-30T18:48:19.613Z,16.60
2022-10-30T18:50:47.389Z,16.60
2022-10-30T18:53:18.763Z,16.60
2022-10-30T18:58:19.561Z,16.90
2022-10-30T19:01:11.037Z,16.20
2022-10-30T19:03:44.161Z,16.40
2022-10-30T19:06:13.636Z,16.40
2022-10-30T19:08:42.840Z,16.40
2022-10-30T19:11:13.140Z,16.20
2022-10-30T19:13:41.590Z,16.20
2022-10-30T19:16:12.534Z,16.40
2022-10-30T19:18:40.354Z,16.30
2022-10-30T19:21:13.087Z,16.70
2022-10-30T19:23:50.819Z,16.30
2022-10-30T19:26:18.983Z,16.20
2022-10-30T19:28:47.259Z,16.50
2022-10-30T19:31:17.667Z,16.20
2022-10-30T19:33:45.612Z,16.50
2022-10-30T19:36:27.823Z,16.20
2022-10-30T19:38:57.770Z,16.20
2022-10-30T19:41:25.837Z,16.20
2022-10-30T19:43:56.721Z,16.10
2022-10-30T19:46:24.542Z,16.20
2022-10-30T19:49:00.353Z,16.30
2022-10-30T19:51:28.798Z,15.90
2022-10-30T19:53:58.023Z,16.00
2022-10-30T19:56:25.866Z,15.80
2022-10-30T19:58:53.665Z,16.00
2022-10-30T20:01:21.599Z,16.00
2022-10-30T20:03:49.502Z,16.10
2022-10-30T20:06:18.839Z,15.80
2022-10-30T20:08:46.664Z,16.20
2022-10-30T20:11:15.790Z,15.70
2022-10-30T20:13:43.627Z,15.70
2022-10-30T20:16:12.306Z,15.90
2022-10-30T20:18:40.423Z,16.50
2022-10-30T20:21:12.108Z,16.00
2022-10-30T20:23:40.333Z,15.80
2022-10-30T20:26:20.193Z,16.70
2022-10-30T20:28:48.112Z,15.50
2022-10-30T20:31:16.243Z,17.10
2022-10-30T20:33:46.385Z,15.50
2022-10-30T20:36:14.891Z,15.50
2022-10-30T20:38:42.768Z,15.50
2022-10-30T20:41:21.974Z,15.80
2022-10-30T20:43:50.852Z,14.80
2022-10-30T20:46:19.281Z,16.00
2022-10-30T20:48:47.115Z,15.30
2022-10-30T20:51:15.279Z,15.40
2022-10-30T20:53:43.094Z,15.60
2022-10-30T20:56:11.545Z,15.50
2022-10-30T20:58:46.885Z,15.80
2022-10-30T21:01:14.943Z,16.70
2022-10-30T21:03:42.851Z,15.80
2022-10-30T21:06:10.697Z,15.20
2022-10-30T21:08:38.655Z,15.40
2022-10-30T21:11:07.787Z,15.60
2022-10-30T21:13:35.993Z,15.40
2022-10-30T21:16:11.961Z,15.50
2022-10-30T21:18:39.758Z,15.90
2022-10-30T21:21:11.432Z,15.80
2022-10-30T21:23:39.383Z,15.40
2022-10-30T21:26:10.877Z,16.10
2022-10-30T21:28:39.071Z,15.10
2022-10-30T21:31:11.841Z,15.90
2022-10-30T21:33:40.311Z,15.90
2022-10-30T21:36:12.909Z,15.50
2022-10-30T21:38:42.586Z,15.30
2022-10-30T21:41:10.693Z,15.80
2022-10-30T21:43:38.493Z,16.40
2022-10-30T21:46:08.291Z,15.10
2022-10-30T21:48:36.273Z,15.30
2022-10-30T21:51:09.286Z,15.80
2022-10-30T21:53:37.795Z,16.50
2022-10-30T21:56:07.724Z,15.70
2022-10-30T21:58:36.100Z,15.40
2022-10-30T22:01:05.207Z,15.90
2022-10-30T22:03:35.053Z,15.60
2022-10-30T22:06:07.674Z,15.10
2022-10-30T22:08:35.800Z,15.10
2022-10-30T22:11:04.513Z,15.20
2022-10-30T22:13:32.368Z,15.10
2022-10-30T22:16:00.317Z,15.10
2022-10-30T22:18:28.653Z,16.00
2022-10-30T22:21:02.198Z,15.10
2022-10-30T22:23:30.201Z,15.00
2022-10-30T22:25:59.823Z,16.50
2022-10-30T22:28:28.312Z,15.00
2022-10-30T22:30:56.321Z,15.40
2022-10-30T22:33:24.161Z,15.00
2022-10-30T22:35:51.969Z,14.90
2022-10-30T22:38:21.127Z,14.90
2022-10-30T22:40:48.949Z,14.90
2022-10-30T22:45:53.900Z,14.80
2022-10-30T22:48:21.699Z,14.80
2022-10-30T22:50:56.769Z,14.80
2022-10-30T22:53:26.125Z,14.90
2022-10-30T22:55:54.043Z,14.80
2022-10-30T22:58:22.176Z,14.90
2022-10-30T23:00:49.998Z,14.60
2022-10-30T23:03:17.856Z,14.80
2022-10-30T23:05:45.710Z,14.90
2022-10-30T23:08:13.513Z,14.80
2022-10-30T23:10:42.713Z,15.20
2022-10-30T23:13:10.573Z,14.60
2022-10-30T23:15:40.069Z,14.80
2022-10-30T23:18:07.892Z,14.50
2022-10-30T23:20:35.720Z,14.80
2022-10-30T23:23:05.639Z,14.80
2022-10-30T23:25:35.221Z,14.80
2022-10-30T23:28:05.241Z,14.70
2022-10-30T23:30:34.396Z,14.70
2022-10-30T23:33:02.497Z,14.70
2022-10-30T23:35:30.462Z,14.60
2022-10-30T23:37:58.321Z,14.60
2022-10-30T23:40:26.120Z,14.50
2022-10-30T23:42:55.299Z,14.50
2022-10-30T23:45:24.703Z,14.50
2022-10-30T23:47:52.548Z,14.50
2022-10-30T23:50:20.333Z,14.50
2022-10-30T23:52:48.144Z,14.50
2022-10-30T23:55:16.012Z,14.50
2022-10-30T23:57:44.801Z,14.50
